AMP YBTH-YBTH

Flight info

Callsign AMP
Flight time N/A
Altitude 5500
Route VFR
Aircraft C208/L-VGD/C

Departure

Time 2026-05-06 08:17
Airport Bathurst Airport (YBTH)

Arrival

Time N/A
Airport Bathurst Airport (YBTH)
Time Latitude Longitude Altitude Speed Heading
2026-05-06 08:13 -33.41354 149.65460 2438 ft 0 kts 186°
2026-05-06 08:14 -33.41357 149.65460 2438 ft 3 kts 186°
2026-05-06 08:14 -33.41374 149.65450 2438 ft 2 kts 288°
2026-05-06 08:14 -33.41354 149.65403 2436 ft 11 kts 300°
2026-05-06 08:15 -33.41342 149.65316 2438 ft 12 kts 275°
2026-05-06 08:15 -33.41334 149.65248 2435 ft 0 kts 282°
2026-05-06 08:15 -33.41332 149.65236 2434 ft 6 kts 282°
2026-05-06 08:16 -33.41312 149.65175 2433 ft 10 kts 326°
2026-05-06 08:16 -33.41164 149.65156 2424 ft 42 kts 356°
2026-05-06 08:16 -33.40699 149.65117 2418 ft 88 kts 355°
2026-05-06 08:16 -33.40071 149.65085 2658 ft 90 kts 355°
2026-05-06 08:17 -33.39452 149.64988 2911 ft 91 kts 335°
2026-05-06 08:17 -33.39139 149.64428 3170 ft 88 kts 255°
2026-05-06 08:17 -33.39697 149.64242 3224 ft 115 kts 160°
2026-05-06 08:17 -33.40504 149.64404 3387 ft 116 kts 183°
2026-05-06 08:18 -33.41327 149.64382 3601 ft 123 kts 183°
2026-05-06 08:18 -33.42179 149.64448 3925 ft 121 kts 176°
2026-05-06 08:18 -33.43037 149.64432 4065 ft 130 kts 198°
2026-05-06 08:18 -33.43772 149.63888 4358 ft 122 kts 231°
2026-05-06 08:19 -33.44121 149.62927 4411 ft 133 kts 259°
2026-05-06 08:19 -33.44304 149.61792 4488 ft 143 kts 259°
2026-05-06 08:19 -33.44508 149.60607 4576 ft 149 kts 262°
2026-05-06 08:19 -33.44430 149.59437 4040 ft 141 kts 296°
2026-05-06 08:20 -33.44091 149.58376 3586 ft 131 kts 294°
2026-05-06 08:20 -33.43924 149.57356 3170 ft 123 kts 269°
2026-05-06 08:20 -33.43941 149.56286 2575 ft 133 kts 269°
2026-05-06 08:20 -33.43924 149.55248 2520 ft 107 kts 253°
2026-05-06 08:21 -33.44425 149.54855 2852 ft 100 kts 176°
2026-05-06 08:21 -33.45126 149.54851 2983 ft 98 kts 193°
2026-05-06 08:21 -33.45600 149.55339 2860 ft 125 kts 128°
2026-05-06 08:21 -33.46216 149.56192 2618 ft 151 kts 102°
2026-05-06 08:22 -33.45579 149.56711 2654 ft 140 kts 350°
2026-05-06 08:22 -33.44609 149.56503 2670 ft 143 kts 339°
2026-05-06 08:22 -33.43866 149.55794 2602 ft 140 kts 276°
2026-05-06 08:22 -33.43430 149.54918 2926 ft 128 kts 336°
2026-05-06 08:23 -33.42572 149.55165 2988 ft 140 kts 44°
2026-05-06 08:23 -33.42180 149.56214 3169 ft 136 kts 82°
2026-05-06 08:23 -33.42152 149.57304 3411 ft 128 kts 94°
2026-05-06 08:23 -33.42210 149.58341 3641 ft 122 kts 96°
2026-05-06 08:24 -33.42256 149.59327 3898 ft 116 kts 95°
2026-05-06 08:24 -33.42383 149.60304 4016 ft 121 kts 104°
2026-05-06 08:24 -33.42591 149.61275 4189 ft 121 kts 103°
2026-05-06 08:24 -33.42795 149.62295 4246 ft 130 kts 101°
2026-05-06 08:25 -33.42990 149.63373 4397 ft 132 kts 103°
2026-05-06 08:25 -33.43189 149.64452 4624 ft 134 kts 100°
2026-05-06 08:25 -33.43304 149.65181 4779 ft 135 kts 99°
2026-05-06 08:25 -33.43453 149.66289 5014 ft 135 kts 97°
2026-05-06 08:26 -33.43577 149.67400 5243 ft 135 kts 95°
2026-05-06 08:26 -33.43676 149.68534 5393 ft 141 kts 94°
2026-05-06 08:26 -33.43753 149.69742 5454 ft 150 kts 92°
2026-05-06 08:26 -33.43810 149.71021 5484 ft 157 kts 91°
2026-05-06 08:27 -33.43845 149.72356 5500 ft 163 kts 90°
2026-05-06 08:27 -33.43861 149.73732 5500 ft 168 kts 89°
2026-05-06 08:27 -33.43854 149.75139 5500 ft 169 kts 88°
2026-05-06 08:27 -33.43819 149.76550 5497 ft 170 kts 86°
2026-05-06 08:28 -33.43760 149.77967 5508 ft 171 kts 85°
2026-05-06 08:28 -33.43675 149.79385 5500 ft 171 kts 84°
2026-05-06 08:28 -33.43620 149.80131 5502 ft 171 kts 83°
2026-05-06 08:29 -33.43581 149.80605 5500 ft 170 kts 83°
2026-05-06 08:29 -33.43445 149.82015 5501 ft 170 kts 81°
2026-05-06 08:29 -33.43428 149.83425 5495 ft 170 kts 92°
2026-05-06 08:29 -33.43541 149.84830 5498 ft 169 kts 98°
2026-05-06 08:30 -33.43822 149.86196 5499 ft 169 kts 105°
2026-05-06 08:30 -33.44162 149.87536 5496 ft 168 kts 107°
2026-05-06 08:30 -33.44514 149.88866 5510 ft 168 kts 107°
2026-05-06 08:30 -33.44868 149.90209 5512 ft 170 kts 107°
2026-05-06 08:31 -33.45226 149.91566 5511 ft 171 kts 108°
2026-05-06 08:31 -33.45587 149.92928 5512 ft 172 kts 107°
2026-05-06 08:31 -33.45947 149.94278 5509 ft 173 kts 107°
2026-05-06 08:31 -33.46313 149.95651 5512 ft 173 kts 107°
2026-05-06 08:32 -33.46683 149.97026 5500 ft 173 kts 107°
2026-05-06 08:32 -33.47056 149.98400 5507 ft 174 kts 107°
2026-05-06 08:32 -33.47434 149.99796 5503 ft 174 kts 107°
2026-05-06 08:32 -33.47801 150.01150 5496 ft 173 kts 107°
2026-05-06 08:33 -33.48168 150.02516 5501 ft 172 kts 107°
2026-05-06 08:33 -33.48532 150.03884 5503 ft 173 kts 107°
2026-05-06 08:33 -33.48897 150.05254 5500 ft 172 kts 107°
2026-05-06 08:33 -33.49253 150.06618 5506 ft 172 kts 107°
2026-05-06 08:34 -33.49611 150.07996 5513 ft 173 kts 107°
2026-05-06 08:34 -33.50324 150.10758 5512 ft 174 kts 107°
2026-05-06 08:34 -33.50681 150.12147 5506 ft 174 kts 107°
2026-05-06 08:35 -33.51039 150.13534 5505 ft 174 kts 107°
2026-05-06 08:35 -33.51396 150.14911 5495 ft 172 kts 107°
2026-05-06 08:35 -33.51755 150.16276 5490 ft 171 kts 107°
2026-05-06 08:35 -33.52110 150.17632 5492 ft 171 kts 107°
2026-05-06 08:36 -33.52464 150.18994 5504 ft 172 kts 107°
2026-05-06 08:36 -33.52822 150.20363 5501 ft 172 kts 109°
2026-05-06 08:36 -33.53353 150.21654 5504 ft 173 kts 122°
2026-05-06 08:36 -33.54085 150.22799 5503 ft 173 kts 137°
2026-05-06 08:37 -33.54997 150.23738 5496 ft 173 kts 142°
2026-05-06 08:37 -33.55960 150.24584 5485 ft 171 kts 150°
2026-05-06 08:37 -33.56985 150.25296 5484 ft 170 kts 153°
2026-05-06 08:37 -33.58021 150.25977 5507 ft 170 kts 156°
2026-05-06 08:38 -33.59123 150.26504 5507 ft 171 kts 163°
2026-05-06 08:38 -33.60252 150.26967 5509 ft 172 kts 164°
2026-05-06 08:38 -33.61392 150.27409 5501 ft 173 kts 165°
2026-05-06 08:38 -33.62536 150.27842 5506 ft 173 kts 165°
2026-05-06 08:39 -33.63672 150.28268 5512 ft 174 kts 165°
2026-05-06 08:39 -33.64836 150.28705 5512 ft 176 kts 165°
2026-05-06 08:39 -33.66004 150.29141 5481 ft 175 kts 165°
2026-05-06 08:39 -33.67158 150.29568 5467 ft 172 kts 165°
2026-05-06 08:40 -33.68293 150.29989 5472 ft 170 kts 165°
2026-05-06 08:40 -33.69418 150.30410 5488 ft 169 kts 165°
2026-05-06 08:40 -33.70546 150.30835 5499 ft 171 kts 165°
2026-05-06 08:40 -33.71684 150.31264 5494 ft 172 kts 165°
2026-05-06 08:41 -33.72824 150.31713 5494 ft 173 kts 158°
2026-05-06 08:41 -33.73713 150.32697 5501 ft 177 kts 128°
2026-05-06 08:41 -33.74437 150.33897 5475 ft 177 kts 125°
2026-05-06 08:41 -33.75122 150.35109 5463 ft 174 kts 123°
2026-05-06 08:42 -33.75609 150.36432 5478 ft 173 kts 106°
2026-05-06 08:42 -33.75938 150.37825 5485 ft 174 kts 104°
2026-05-06 08:42 -33.76234 150.39235 5476 ft 174 kts 103°
2026-05-06 08:42 -33.76510 150.40643 5464 ft 173 kts 102°
2026-05-06 08:43 -33.76775 150.42048 5472 ft 172 kts 102°
2026-05-06 08:43 -33.77035 150.43460 5494 ft 174 kts 102°
2026-05-06 08:43 -33.77297 150.44892 5494 ft 176 kts 102°
2026-05-06 08:43 -33.77559 150.46334 5473 ft 176 kts 101°
2026-05-06 08:44 -33.77816 150.47768 5465 ft 175 kts 101°
2026-05-06 08:44 -33.78067 150.49193 5464 ft 174 kts 101°
2026-05-06 08:44 -33.78316 150.50614 5469 ft 173 kts 101°
2026-05-06 08:44 -33.78566 150.52035 5462 ft 174 kts 101°
2026-05-06 08:45 -33.78813 150.53453 5463 ft 173 kts 101°
2026-05-06 08:45 -33.79061 150.54869 5465 ft 173 kts 101°
2026-05-06 08:45 -33.79309 150.56281 5463 ft 173 kts 101°
2026-05-06 08:45 -33.79555 150.57700 5476 ft 174 kts 101°
2026-05-06 08:46 -33.79804 150.59126 5469 ft 174 kts 101°
2026-05-06 08:46 -33.80051 150.60554 5466 ft 174 kts 101°
2026-05-06 08:46 -33.80297 150.61978 5468 ft 174 kts 101°
2026-05-06 08:46 -33.80542 150.63403 5469 ft 174 kts 101°
2026-05-06 08:47 -33.80789 150.64857 5312 ft 182 kts 101°
2026-05-06 08:47 -33.81016 150.66357 5130 ft 188 kts 95°
2026-05-06 08:47 -33.80941 150.67925 4932 ft 189 kts 78°
2026-05-06 08:47 -33.80650 150.69471 4731 ft 190 kts 73°
2026-05-06 08:48 -33.80304 150.71004 4522 ft 190 kts 72°
2026-05-06 08:48 -33.79942 150.72518 4312 ft 188 kts 71°
2026-05-06 08:48 -33.79573 150.74027 4117 ft 188 kts 71°
2026-05-06 08:48 -33.79198 150.75528 3914 ft 187 kts 70°
2026-05-06 08:49 -33.78839 150.77026 3707 ft 186 kts 72°
2026-05-06 08:49 -33.78641 150.78552 3573 ft 184 kts 85°
2026-05-06 08:49 -33.78677 150.80074 3515 ft 180 kts 92°
2026-05-06 08:49 -33.78831 150.81558 3482 ft 177 kts 96°
2026-05-06 08:50 -33.79023 150.83008 3476 ft 175 kts 97°
2026-05-06 08:50 -33.79239 150.84440 3476 ft 174 kts 100°
2026-05-06 08:50 -33.79514 150.85855 3467 ft 173 kts 101°
2026-05-06 08:50 -33.79795 150.87257 3461 ft 172 kts 102°
2026-05-06 08:51 -33.80079 150.88652 3466 ft 172 kts 102°
2026-05-06 08:51 -33.80362 150.90029 3468 ft 172 kts 102°
2026-05-06 08:51 -33.80661 150.91449 3472 ft 173 kts 102°
2026-05-06 08:51 -33.80957 150.92855 3467 ft 173 kts 102°
2026-05-06 08:52 -33.81247 150.94261 3467 ft 173 kts 102°
2026-05-06 08:52 -33.81536 150.95662 3462 ft 173 kts 102°
2026-05-06 08:52 -33.81825 150.97060 3458 ft 172 kts 102°
2026-05-06 08:52 -33.82115 150.98447 3463 ft 171 kts 102°
2026-05-06 08:53 -33.82404 150.99831 3460 ft 170 kts 102°
2026-05-06 08:53 -33.82691 151.01211 3467 ft 171 kts 102°
2026-05-06 08:53 -33.82974 151.02601 3470 ft 171 kts 102°
2026-05-06 08:53 -33.83251 151.03965 3465 ft 171 kts 102°
2026-05-06 08:54 -33.83530 151.05353 3466 ft 170 kts 102°
2026-05-06 08:54 -33.83802 151.06735 3462 ft 170 kts 101°
2026-05-06 08:54 -33.84080 151.08113 3462 ft 169 kts 102°
2026-05-06 08:54 -33.84309 151.09497 3439 ft 169 kts 93°
2026-05-06 08:55 -33.84375 151.10816 3168 ft 150 kts 88°
2026-05-06 08:55 -33.84400 151.12038 2912 ft 141 kts 89°
2026-05-06 08:55 -33.84427 151.13182 2659 ft 134 kts 87°
2026-05-06 08:55 -33.84464 151.14307 2341 ft 134 kts 90°
2026-05-06 08:56 -33.84536 151.15443 1985 ft 137 kts 92°
2026-05-06 08:56 -33.84637 151.16576 1638 ft 135 kts 95°
2026-05-06 08:56 -33.84781 151.17678 1354 ft 131 kts 95°
2026-05-06 08:56 -33.84917 151.18773 987 ft 132 kts 96°
2026-05-06 08:57 -33.85058 151.19839 606 ft 128 kts 95°
2026-05-06 08:57 -33.85185 151.20919 115 ft 131 kts 98°
2026-05-06 08:57 -33.85383 151.21849 175 ft 95 kts 105°
2026-05-06 08:57 -33.85588 151.22519 179 ft 82 kts 103°
2026-05-06 08:58 -33.85820 151.23122 122 ft 78 kts 128°
2026-05-06 08:58 -33.86166 151.23590 66 ft 70 kts 122°
2026-05-06 08:58 -33.86456 151.24014 21 ft 61 kts 121°
2026-05-06 08:58 -33.86665 151.24407 20 ft 47 kts 105°
2026-05-06 08:59 -33.86647 151.24649 11 ft 24 kts 42°
2026-05-06 08:59 -33.86472 151.24799 11 ft 36 kts 34°
2026-05-06 08:59 -33.86302 151.25038 11 ft 39 kts 88°
2026-05-06 08:59 -33.86293 151.25366 11 ft 40 kts 65°
2026-05-06 09:00 -33.86293 151.25689 11 ft 40 kts 134°
2026-05-06 09:00 -33.86537 151.25910 11 ft 49 kts 149°
2026-05-06 09:00 -33.86824 151.26147 10 ft 39 kts 132°
2026-05-06 09:00 -33.86908 151.26274 10 ft 7 kts 115°
2026-05-06 09:01 -33.86920 151.26292 10 ft 2 kts 67°
2026-05-06 09:01 -33.86931 151.26280 10 ft 2 kts 62°
2026-05-06 09:01 -33.86935 151.26270 10 ft 2 kts 49°
2026-05-06 09:01 -33.86934 151.26273 10 ft 1 kts 58°
2026-05-06 09:02 -33.86942 151.26259 10 ft 2 kts 61°
2026-05-06 09:02 -33.86951 151.26242 10 ft 2 kts 59°
2026-05-06 09:02 -33.86960 151.26225 10 ft 2 kts 59°
2026-05-06 09:02 -33.86969 151.26207 10 ft 2 kts 58°
2026-05-06 09:03 -33.86978 151.26191 10 ft 2 kts 59°
2026-05-06 09:03 -33.86987 151.26173 10 ft 3 kts 59°